createdAt,value
2018-04-20T00:01:23.473Z,99.90
2018-04-20T00:03:51.738Z,99.90
2018-04-20T00:06:20.784Z,99.90
2018-04-20T00:08:49.059Z,99.90
2018-04-20T00:11:17.443Z,99.90
2018-04-20T00:13:45.699Z,99.90
2018-04-20T00:16:13.979Z,99.90
2018-04-20T00:18:42.242Z,99.90
2018-04-20T00:21:10.534Z,99.90
2018-04-20T00:23:38.804Z,99.90
2018-04-20T00:26:07.096Z,99.90
2018-04-20T00:28:35.351Z,99.90
2018-04-20T00:31:03.655Z,99.90
2018-04-20T00:33:31.916Z,99.90
2018-04-20T00:36:00.195Z,99.90
2018-04-20T00:38:28.473Z,99.90
2018-04-20T00:40:56.754Z,99.90
2018-04-20T00:43:25.045Z,99.90
2018-04-20T00:45:53.326Z,99.90
2018-04-20T00:48:21.582Z,99.90
2018-04-20T00:50:50.642Z,99.90
2018-04-20T00:53:18.909Z,99.90
2018-04-20T00:55:47.980Z,99.90
2018-04-20T00:58:17.010Z,99.90
2018-04-20T01:00:46.046Z,99.90
2018-04-20T01:03:14.349Z,99.90
2018-04-20T01:05:44.110Z,99.90
2018-04-20T01:08:12.417Z,99.90
2018-04-20T01:10:40.673Z,99.90
2018-04-20T01:13:08.963Z,99.90
2018-04-20T01:15:37.252Z,99.90
2018-04-20T01:20:25.934Z,99.90
2018-04-20T01:22:54.213Z,99.90
2018-04-20T01:25:22.502Z,99.90
2018-04-20T01:27:50.798Z,99.90
2018-04-20T01:30:19.847Z,99.90
2018-04-20T01:32:48.231Z,99.90
2018-04-20T01:35:16.482Z,99.90
2018-04-20T01:37:44.786Z,99.90
2018-04-20T01:40:13.097Z,99.90
2018-04-20T01:42:42.972Z,99.90
2018-04-20T01:45:11.252Z,99.90
2018-04-20T01:47:39.637Z,99.90
2018-04-20T01:50:07.910Z,99.90
2018-04-20T01:52:36.193Z,99.90
2018-04-20T01:55:04.582Z,99.90
2018-04-20T01:57:32.947Z,99.90
2018-04-20T02:00:01.325Z,99.90
2018-04-20T02:02:29.622Z,99.90
2018-04-20T02:04:57.906Z,99.90
2018-04-20T02:07:26.978Z,99.90
2018-04-20T02:09:55.292Z,99.90
2018-04-20T02:12:23.549Z,99.90
2018-04-20T02:14:51.835Z,99.90
2018-04-20T02:17:21.008Z,99.90
2018-04-20T02:19:49.271Z,99.90
2018-04-20T02:22:17.665Z,99.90
2018-04-20T02:24:46.688Z,99.90
2018-04-20T02:27:14.987Z,99.90
2018-04-20T02:29:43.263Z,99.90
2018-04-20T02:32:11.601Z,99.90
2018-04-20T02:34:39.882Z,99.90
2018-04-20T02:37:08.250Z,99.90
2018-04-20T02:39:36.515Z,99.90
2018-04-20T02:42:04.820Z,99.90
2018-04-20T02:44:33.094Z,99.90
2018-04-20T02:47:02.908Z,99.90
2018-04-20T02:49:31.185Z,99.90
2018-04-20T02:51:59.490Z,99.90
2018-04-20T02:54:28.560Z,99.90
2018-04-20T02:56:57.029Z,99.90
2018-04-20T02:59:25.429Z,99.90
2018-04-20T03:01:54.482Z,99.90
2018-04-20T03:04:22.783Z,99.90
2018-04-20T03:06:51.164Z,99.90
2018-04-20T03:09:19.459Z,99.90
2018-04-20T03:11:47.735Z,99.90
2018-04-20T03:14:16.093Z,99.90
2018-04-20T03:16:44.354Z,99.90
2018-04-20T03:19:12.692Z,99.90
2018-04-20T03:21:41.030Z,99.90
2018-04-20T03:24:09.329Z,99.90
2018-04-20T03:26:37.602Z,99.90
2018-04-20T03:29:06.686Z,99.90
2018-04-20T03:31:35.718Z,99.90
2018-04-20T03:34:04.027Z,99.90
2018-04-20T03:36:32.304Z,99.90
2018-04-20T03:39:00.625Z,99.90
2018-04-20T03:41:28.890Z,99.90
2018-04-20T03:43:57.264Z,99.90
2018-04-20T03:46:25.648Z,99.90
2018-04-20T03:48:54.029Z,99.90
2018-04-20T03:51:22.286Z,99.90
2018-04-20T03:53:50.578Z,99.90
2018-04-20T03:56:18.988Z,99.90
2018-04-20T03:58:48.073Z,99.90
2018-04-20T04:01:16.359Z,99.90
2018-04-20T04:03:45.443Z,99.90
2018-04-20T04:06:13.706Z,99.90
2018-04-20T04:08:42.081Z,99.90
2018-04-20T04:11:10.468Z,99.90
2018-04-20T04:13:39.540Z,99.90
2018-04-20T04:16:07.816Z,99.90
2018-04-20T04:18:48.139Z,99.90
2018-04-20T04:24:27.095Z,99.90
2018-04-20T04:29:49.634Z,99.90
2018-04-20T04:32:18.674Z,99.90
2018-04-20T04:34:46.991Z,99.90
2018-04-20T04:37:15.260Z,99.90
2018-04-20T04:39:43.554Z,99.90
2018-04-20T04:42:11.834Z,99.90
2018-04-20T04:44:40.138Z,99.90
2018-04-20T04:47:08.466Z,99.90
2018-04-20T04:49:36.758Z,99.90
2018-04-20T04:52:05.783Z,99.90
2018-04-20T04:54:34.113Z,99.90
2018-04-20T04:57:02.381Z,99.90
2018-04-20T04:59:30.771Z,99.90
2018-04-20T05:01:59.022Z,99.90
2018-04-20T05:04:27.324Z,99.90
2018-04-20T05:06:55.588Z,99.90
2018-04-20T05:09:23.990Z,99.90
2018-04-20T05:11:52.284Z,99.90
2018-04-20T05:14:20.635Z,99.90
2018-04-20T05:16:48.918Z,99.90
2018-04-20T05:19:17.213Z,99.90
2018-04-20T05:21:45.579Z,99.90
2018-04-20T05:24:13.863Z,99.90
2018-04-20T05:26:42.139Z,99.90
2018-04-20T05:29:10.512Z,99.90
2018-04-20T05:31:38.899Z,99.90
2018-04-20T05:34:07.162Z,99.90
2018-04-20T05:36:35.454Z,99.90
2018-04-20T05:39:03.727Z,99.90
2018-04-20T05:41:32.022Z,99.90
2018-04-20T05:44:01.064Z,99.90
2018-04-20T05:46:29.356Z,99.90
2018-04-20T05:48:57.626Z,99.90
2018-04-20T05:51:26.025Z,99.90
2018-04-20T05:53:54.283Z,99.90
2018-04-20T05:56:22.585Z,99.90
2018-04-20T05:58:50.862Z,99.90
2018-04-20T06:01:19.656Z,99.90
2018-04-20T06:03:47.863Z,99.90
2018-04-20T06:06:16.928Z,99.90
2018-04-20T06:08:45.194Z,99.90
2018-04-20T06:11:13.490Z,99.90
2018-04-20T06:13:41.760Z,99.90
2018-04-20T06:16:10.066Z,99.90
2018-04-20T06:18:38.356Z,99.90
2018-04-20T06:21:06.643Z,99.90
2018-04-20T06:23:34.923Z,99.90
2018-04-20T06:26:03.210Z,99.90
2018-04-20T06:28:31.486Z,99.90
2018-04-20T06:30:59.794Z,99.90
2018-04-20T06:33:28.079Z,99.90
2018-04-20T06:35:56.383Z,99.90
2018-04-20T06:38:25.426Z,99.90
2018-04-20T06:40:53.820Z,99.90
2018-04-20T06:43:22.080Z,99.90
2018-04-20T06:45:50.478Z,99.90
2018-04-20T06:48:18.754Z,99.90
2018-04-20T06:50:47.061Z,99.90
2018-04-20T06:53:16.119Z,99.90
2018-04-20T06:55:44.419Z,99.90
2018-04-20T06:58:12.691Z,99.90
2018-04-20T07:00:40.998Z,99.90
2018-04-20T07:03:09.286Z,99.90
2018-04-20T07:05:37.588Z,99.90
2018-04-20T07:08:05.902Z,99.90
2018-04-20T07:10:34.273Z,99.90
2018-04-20T07:13:02.548Z,99.90
2018-04-20T07:15:30.853Z,99.90
2018-04-20T07:17:59.309Z,99.90
2018-04-20T07:20:28.365Z,99.90
2018-04-20T07:22:56.641Z,99.90
2018-04-20T07:25:24.946Z,99.90
2018-04-20T07:27:53.218Z,99.90
2018-04-20T07:30:21.516Z,99.90
2018-04-20T07:32:49.774Z,99.90
2018-04-20T07:35:18.043Z,99.90
2018-04-20T07:37:46.345Z,99.90
2018-04-20T07:40:14.622Z,99.90
2018-04-20T07:42:42.911Z,99.90
2018-04-20T07:45:11.216Z,99.90
2018-04-20T07:47:39.511Z,99.90
2018-04-20T07:50:07.779Z,99.90
2018-04-20T07:52:36.086Z,99.90
2018-04-20T07:55:04.351Z,99.90
2018-04-20T07:57:32.638Z,99.90
2018-04-20T08:00:00.919Z,99.90
2018-04-20T08:02:29.987Z,99.90
2018-04-20T08:04:58.250Z,99.90
2018-04-20T08:07:27.413Z,99.90
2018-04-20T08:09:55.797Z,99.90
2018-04-20T08:12:24.074Z,99.90
2018-04-20T08:14:52.446Z,99.90
2018-04-20T08:17:20.729Z,99.90
2018-04-20T08:19:49.000Z,99.90
2018-04-20T08:22:17.297Z,99.90
2018-04-20T08:24:45.645Z,99.90
2018-04-20T08:27:13.946Z,99.90
2018-04-20T08:29:42.209Z,99.90
2018-04-20T08:32:10.496Z,99.90
2018-04-20T08:34:38.754Z,99.90
2018-04-20T08:37:07.050Z,99.90
2018-04-20T08:39:35.303Z,99.90
2018-04-20T08:42:03.624Z,99.90
2018-04-20T08:44:31.858Z,99.90
2018-04-20T08:47:00.253Z,99.90
2018-04-20T08:49:28.510Z,99.90
2018-04-20T08:51:56.813Z,99.90
2018-04-20T08:54:25.081Z,99.90
2018-04-20T08:56:53.472Z,99.90
2018-04-20T08:59:21.722Z,99.90
2018-04-20T09:01:50.013Z,99.90
2018-04-20T09:04:18.275Z,99.90
2018-04-20T09:06:46.561Z,99.90
2018-04-20T09:09:14.845Z,99.90
2018-04-20T09:11:43.098Z,99.90
2018-04-20T09:14:11.381Z,99.90
2018-04-20T09:16:39.694Z,99.90
2018-04-20T09:19:07.994Z,99.90
2018-04-20T09:21:37.028Z,99.90
2018-04-20T09:24:05.314Z,99.90
2018-04-20T09:26:33.582Z,99.90
2018-04-20T09:29:01.871Z,99.90
2018-04-20T09:31:30.887Z,99.90
2018-04-20T09:33:59.626Z,99.90
2018-04-20T09:36:27.934Z,99.90
2018-04-20T09:38:56.223Z,99.90
2018-04-20T09:41:24.499Z,99.90
2018-04-20T09:43:52.789Z,99.90
2018-04-20T09:46:21.056Z,99.90
2018-04-20T09:48:49.344Z,99.90
2018-04-20T09:51:17.604Z,99.90
2018-04-20T09:53:45.978Z,99.90
2018-04-20T09:56:14.243Z,99.90
2018-04-20T09:58:42.556Z,99.90
2018-04-20T10:01:11.251Z,99.90
2018-04-20T10:03:45.200Z,99.90
2018-04-20T10:06:13.465Z,99.90
2018-04-20T10:08:42.506Z,99.90
2018-04-20T10:11:10.775Z,99.90
2018-04-20T10:13:39.064Z,99.90
2018-04-20T10:16:07.734Z,99.90
2018-04-20T10:18:36.143Z,99.90
2018-04-20T10:21:04.398Z,99.90
2018-04-20T10:23:32.689Z,99.90
2018-04-20T10:26:00.975Z,99.90
2018-04-20T10:28:29.226Z,99.90
2018-04-20T10:30:57.530Z,99.90
2018-04-20T10:33:25.799Z,99.90
2018-04-20T10:35:54.090Z,99.90
2018-04-20T10:38:22.354Z,99.90
2018-04-20T10:40:50.635Z,99.90
2018-04-20T10:43:18.899Z,99.90
2018-04-20T10:45:47.178Z,99.90
2018-04-20T10:48:15.426Z,99.90
2018-04-20T10:50:43.712Z,99.90
2018-04-20T10:53:12.001Z,99.90
2018-04-20T10:55:40.271Z,99.90
2018-04-20T10:58:08.558Z,99.90
2018-04-20T11:00:36.836Z,99.90
2018-04-20T11:03:05.089Z,98.70
2018-04-20T11:05:33.369Z,97.50
2018-04-20T11:08:01.673Z,95.30
2018-04-20T11:10:30.055Z,95.50
2018-04-20T11:12:58.303Z,95.00
2018-04-20T11:15:26.595Z,93.10
2018-04-20T11:17:55.193Z,93.50
2018-04-20T11:20:24.298Z,93.20
2018-04-20T11:22:52.550Z,93.20
2018-04-20T11:25:20.948Z,94.30
2018-04-20T11:27:49.218Z,93.00
2018-04-20T11:30:17.504Z,90.60
2018-04-20T11:32:45.756Z,91.70
2018-04-20T11:35:14.031Z,91.00
2018-04-20T11:37:42.333Z,87.70
2018-04-20T11:40:10.614Z,88.40
2018-04-20T11:42:38.996Z,86.50
2018-04-20T11:45:07.363Z,87.70
2018-04-20T11:47:35.618Z,81.80
2018-04-20T11:50:03.882Z,77.60
2018-04-20T11:52:32.197Z,77.50
2018-04-20T11:55:00.457Z,72.60
2018-04-20T11:57:28.758Z,72.60
2018-04-20T11:59:57.006Z,68.90
2018-04-20T12:02:26.123Z,72.90
2018-04-20T12:04:54.413Z,69.40
2018-04-20T12:07:23.661Z,76.80
2018-04-20T12:09:52.708Z,71.70
2018-04-20T12:12:21.016Z,71.60
2018-04-20T12:14:49.277Z,68.00
2018-04-20T12:17:17.576Z,67.60
2018-04-20T12:19:45.838Z,65.90
2018-04-20T12:22:14.330Z,64.60
2018-04-20T12:24:42.590Z,63.30
2018-04-20T12:27:10.867Z,64.40
2018-04-20T12:29:39.127Z,63.10
2018-04-20T12:32:07.409Z,61.80
2018-04-20T12:34:35.832Z,61.90
2018-04-20T12:37:04.210Z,61.10
2018-04-20T12:39:32.463Z,57.00
2018-04-20T12:42:00.743Z,54.80
2018-04-20T12:44:29.152Z,56.80
2018-04-20T12:46:57.526Z,50.40
2018-04-20T12:49:25.784Z,47.30
2018-04-20T12:51:54.084Z,46.40
2018-04-20T12:54:23.887Z,40.60
2018-04-20T12:56:52.164Z,40.50
2018-04-20T12:59:20.443Z,36.40
2018-04-20T13:01:48.718Z,35.00
2018-04-20T13:04:17.019Z,33.80
2018-04-20T13:06:45.310Z,30.80
2018-04-20T13:09:14.338Z,29.80
2018-04-20T13:11:42.871Z,29.70
2018-04-20T13:14:11.229Z,28.30
2018-04-20T13:16:39.491Z,28.70
2018-04-20T13:19:07.891Z,29.20
2018-04-20T13:21:36.160Z,28.40
2018-04-20T13:24:04.649Z,27.70
2018-04-20T13:26:32.899Z,27.40
2018-04-20T13:29:01.187Z,28.10
2018-04-20T13:31:29.580Z,26.20
2018-04-20T13:33:57.863Z,26.00
2018-04-20T13:36:26.112Z,26.00
2018-04-20T13:38:54.387Z,26.20
2018-04-20T13:41:22.647Z,26.80
2018-04-20T13:43:50.930Z,26.80
2018-04-20T13:46:19.248Z,25.90
2018-04-20T13:48:47.518Z,26.40
2018-04-20T13:51:15.778Z,27.20
2018-04-20T13:53:44.072Z,27.50
2018-04-20T13:56:13.043Z,27.70
2018-04-20T13:58:41.463Z,26.90
2018-04-20T14:01:09.740Z,28.40
2018-04-20T14:03:38.022Z,27.60
2018-04-20T14:06:07.789Z,27.10
2018-04-20T14:08:36.089Z,27.10
2018-04-20T14:11:04.368Z,27.40
2018-04-20T14:13:32.647Z,27.40
2018-04-20T14:16:00.911Z,27.40
2018-04-20T14:18:29.191Z,26.70
2018-04-20T14:20:57.472Z,26.60
2018-04-20T14:23:25.884Z,26.90
2018-04-20T14:25:54.135Z,27.90
2018-04-20T14:28:22.422Z,28.30
2018-04-20T14:30:50.745Z,28.80
2018-04-20T14:33:19.786Z,28.40
2018-04-20T14:35:48.061Z,28.40
2018-04-20T14:38:16.342Z,28.60
2018-04-20T14:40:44.616Z,28.40
2018-04-20T14:43:12.889Z,28.30
2018-04-20T14:45:41.165Z,27.80
2018-04-20T14:48:09.460Z,28.10
2018-04-20T14:50:37.719Z,28.00
2018-04-20T14:53:06.003Z,29.10
2018-04-20T14:55:34.382Z,28.90
2018-04-20T14:58:02.636Z,29.30
2018-04-20T15:00:30.923Z,28.70
2018-04-20T15:02:59.211Z,29.50
2018-04-20T15:05:27.512Z,29.40
2018-04-20T15:07:55.767Z,29.80
2018-04-20T15:10:24.155Z,29.50
2018-04-20T15:12:52.438Z,29.40
2018-04-20T15:15:20.730Z,29.50
2018-04-20T15:17:48.998Z,29.60
2018-04-20T15:20:17.362Z,30.00
2018-04-20T15:22:45.641Z,30.40
2018-04-20T15:25:13.910Z,29.30
2018-04-20T15:27:42.297Z,29.10
2018-04-20T15:30:10.582Z,29.20
2018-04-20T15:32:38.839Z,29.40
2018-04-20T15:35:07.126Z,29.90
2018-04-20T15:37:35.404Z,30.10
2018-04-20T15:40:03.676Z,30.30
2018-04-20T15:42:31.931Z,30.40
2018-04-20T15:45:00.231Z,30.40
2018-04-20T15:47:28.500Z,30.50
2018-04-20T15:49:57.004Z,31.10
2018-04-20T15:52:25.375Z,30.90
2018-04-20T15:54:53.650Z,31.20
2018-04-20T15:57:21.903Z,31.00
2018-04-20T15:59:50.308Z,31.40
2018-04-20T16:02:18.689Z,30.90
2018-04-20T16:04:47.068Z,31.60
2018-04-20T16:07:15.322Z,31.50
2018-04-20T16:09:43.611Z,30.50
2018-04-20T16:12:11.871Z,31.30
2018-04-20T16:17:07.724Z,30.80
2018-04-20T16:19:36.117Z,30.70
2018-04-20T16:22:04.393Z,30.60
2018-04-20T16:24:32.692Z,30.90
2018-04-20T16:27:01.708Z,31.80
2018-04-20T16:29:30.810Z,31.40
2018-04-20T16:32:00.008Z,31.40
2018-04-20T16:34:29.166Z,32.40
2018-04-20T16:36:57.436Z,32.40
2018-04-20T16:39:25.770Z,31.80
2018-04-20T16:41:53.995Z,32.00
2018-04-20T16:44:22.493Z,32.30
2018-04-20T16:46:50.768Z,33.30
2018-04-20T16:49:19.140Z,32.90
2018-04-20T16:51:47.407Z,33.50
2018-04-20T16:54:15.715Z,33.20
2018-04-20T16:56:44.011Z,33.90
2018-04-20T16:59:13.079Z,34.30
2018-04-20T17:01:41.400Z,34.20
2018-04-20T17:04:09.663Z,34.70
2018-04-20T17:06:38.818Z,35.30
2018-04-20T17:09:07.102Z,35.20
2018-04-20T17:11:35.475Z,35.50
2018-04-20T17:14:03.738Z,36.00
2018-04-20T17:16:32.025Z,36.50
2018-04-20T17:19:00.283Z,36.20
2018-04-20T17:21:28.698Z,37.20
2018-04-20T17:23:56.960Z,36.90
2018-04-20T17:26:25.341Z,36.80
2018-04-20T17:28:53.599Z,36.90
2018-04-20T17:31:21.879Z,36.60
2018-04-20T17:33:50.146Z,36.90
2018-04-20T17:36:18.442Z,36.90
2018-04-20T17:38:46.710Z,37.30
2018-04-20T17:41:15.001Z,37.40
2018-04-20T17:43:43.275Z,37.90
2018-04-20T17:46:11.619Z,38.30
2018-04-20T17:48:40.715Z,39.60
2018-04-20T17:51:09.007Z,39.00
2018-04-20T17:53:37.290Z,39.70
2018-04-20T17:56:05.591Z,39.90
2018-04-20T17:58:33.874Z,40.70
2018-04-20T18:01:02.154Z,41.20
2018-04-20T18:03:31.922Z,42.80
2018-04-20T18:06:00.244Z,42.80
2018-04-20T18:08:29.842Z,44.40
2018-04-20T18:10:58.153Z,43.80
2018-04-20T18:13:27.183Z,45.10
2018-04-20T18:15:55.510Z,45.10
2018-04-20T18:18:24.755Z,47.50
2018-04-20T18:20:53.070Z,47.00
2018-04-20T18:23:22.318Z,47.60
2018-04-20T18:25:52.263Z,48.80
2018-04-20T18:28:20.554Z,48.70
2018-04-20T18:30:49.562Z,49.40
2018-04-20T18:33:17.853Z,50.00
2018-04-20T18:35:46.157Z,50.60
2018-04-20T18:38:15.215Z,51.60
2018-04-20T18:40:43.583Z,51.60
2018-04-20T18:43:11.846Z,52.20
2018-04-20T18:45:40.106Z,52.80
2018-04-20T18:48:08.391Z,53.50
2018-04-20T18:50:36.646Z,53.90
2018-04-20T18:53:04.948Z,54.10
2018-04-20T18:55:33.213Z,54.70
2018-04-20T18:58:01.518Z,55.10
2018-04-20T19:00:29.807Z,55.60
2018-04-20T19:02:58.182Z,56.00
2018-04-20T19:05:26.438Z,56.90
2018-04-20T19:07:54.742Z,57.30
2018-04-20T19:10:23.016Z,58.30
2018-04-20T19:12:51.291Z,59.10
2018-04-20T19:15:19.551Z,59.60
2018-04-20T19:17:47.832Z,60.30
2018-04-20T19:20:16.118Z,61.40
2018-04-20T19:22:44.405Z,62.90
2018-04-20T19:25:12.663Z,63.70
2018-04-20T19:27:40.955Z,64.90
2018-04-20T19:30:09.237Z,66.20
2018-04-20T19:32:37.563Z,67.30
2018-04-20T19:35:06.585Z,70.40
2018-04-20T19:37:35.615Z,70.30
2018-04-20T19:40:03.984Z,72.40
2018-04-20T19:42:32.267Z,73.60
2018-04-20T19:45:00.527Z,75.50
2018-04-20T19:47:28.812Z,77.10
2018-04-20T19:49:57.076Z,79.30
2018-04-20T19:52:25.469Z,80.60
2018-04-20T19:54:53.856Z,82.40
2018-04-20T19:57:22.397Z,84.30
2018-04-20T19:59:50.710Z,86.40
2018-04-20T20:02:18.994Z,88.90
2018-04-20T20:04:48.026Z,90.20
2018-04-20T20:07:16.464Z,91.50
2018-04-20T20:09:44.723Z,92.20
2018-04-20T20:12:13.012Z,93.20
2018-04-20T20:14:41.275Z,94.20
2018-04-20T20:17:09.576Z,95.00
2018-04-20T20:19:37.834Z,95.70
2018-04-20T20:22:06.174Z,96.70
2018-04-20T20:24:35.218Z,98.80
2018-04-20T20:27:03.510Z,98.80
2018-04-20T20:29:31.802Z,99.30
2018-04-20T20:32:00.091Z,99.90
2018-04-20T20:34:29.123Z,99.90
2018-04-20T20:36:57.406Z,99.90
2018-04-20T20:39:25.703Z,99.90
2018-04-20T20:41:54.079Z,99.90
2018-04-20T20:44:22.343Z,99.90
2018-04-20T20:46:50.634Z,99.90
2018-04-20T20:49:18.894Z,99.90
2018-04-20T20:51:47.298Z,99.90
2018-04-20T20:54:15.571Z,99.90
2018-04-20T20:56:43.955Z,99.90
2018-04-20T20:59:12.363Z,99.90
2018-04-20T21:01:41.440Z,99.90
2018-04-20T21:04:09.695Z,99.90
2018-04-20T21:06:37.965Z,99.90
2018-04-20T21:09:06.362Z,99.90
2018-04-20T21:11:34.632Z,99.90
2018-04-20T21:14:02.934Z,99.90
2018-04-20T21:16:31.294Z,99.90
2018-04-20T21:18:59.690Z,99.90
2018-04-20T21:21:27.983Z,99.90
2018-04-20T21:23:57.030Z,99.90
2018-04-20T21:26:25.307Z,99.90
2018-04-20T21:28:53.608Z,99.90
2018-04-20T21:31:21.986Z,99.90
2018-04-20T21:33:50.287Z,99.90
2018-04-20T21:36:19.331Z,99.90
2018-04-20T21:38:47.619Z,99.90
2018-04-20T21:41:15.887Z,99.90
2018-04-20T21:43:44.286Z,99.90
2018-04-20T21:46:13.393Z,99.90
2018-04-20T21:48:41.771Z,99.90
2018-04-20T21:51:10.026Z,99.90
2018-04-20T21:53:38.416Z,99.90
2018-04-20T21:56:06.685Z,99.90
2018-04-20T21:58:35.080Z,99.90
2018-04-20T22:01:03.371Z,99.90
2018-04-20T22:03:32.599Z,99.90
2018-04-20T22:06:01.635Z,99.90
2018-04-20T22:08:30.032Z,99.90
2018-04-20T22:10:58.296Z,99.90
2018-04-20T22:13:26.687Z,99.90
2018-04-20T22:15:54.948Z,99.90
2018-04-20T22:18:23.237Z,99.90
2018-04-20T22:20:51.502Z,99.90
2018-04-20T22:23:19.803Z,99.90
2018-04-20T22:25:48.843Z,99.90
2018-04-20T22:28:17.135Z,99.90
2018-04-20T22:30:45.463Z,99.90
2018-04-20T22:33:13.747Z,99.90
2018-04-20T22:35:42.026Z,99.90
2018-04-20T22:38:10.320Z,99.90
2018-04-20T22:40:39.361Z,99.90
2018-04-20T22:43:07.653Z,99.90
2018-04-20T22:45:35.912Z,99.90
2018-04-20T22:48:04.218Z,99.90
2018-04-20T22:50:32.480Z,99.90
2018-04-20T22:53:00.775Z,99.90
2018-04-20T22:55:29.046Z,99.90
2018-04-20T22:57:57.362Z,99.90
2018-04-20T23:00:25.690Z,99.90
2018-04-20T23:02:53.995Z,99.90
2018-04-20T23:05:23.039Z,99.90
2018-04-20T23:07:51.334Z,99.90
2018-04-20T23:10:19.599Z,99.90
2018-04-20T23:12:47.893Z,99.90
2018-04-20T23:15:16.162Z,99.90
2018-04-20T23:17:44.448Z,99.90
2018-04-20T23:20:12.729Z,99.90
2018-04-20T23:22:41.033Z,99.90
2018-04-20T23:25:09.332Z,99.90
2018-04-20T23:27:38.381Z,99.90
2018-04-20T23:30:06.688Z,99.90
2018-04-20T23:32:35.762Z,99.90
2018-04-20T23:35:05.567Z,99.90
2018-04-20T23:37:33.847Z,99.90
2018-04-20T23:40:02.170Z,99.90
2018-04-20T23:42:30.417Z,99.90
2018-04-20T23:44:58.706Z,99.90
2018-04-20T23:47:27.671Z,99.90
2018-04-20T23:49:55.965Z,99.90
2018-04-20T23:52:24.234Z,99.90
2018-04-20T23:54:52.624Z,99.90
2018-04-20T23:57:21.086Z,99.90
2018-04-20T23:59:49.381Z,99.90
